sensor_id;sensor_type;location;lat;lon;timestamp;pressure;altitude;pressure_sealevel;temperature;humidity
64139;BME280;50435;43.700;-79.318;2023-02-22T00:01:32;99486.69;;;2.93;39.92
64139;BME280;50435;43.700;-79.318;2023-02-22T00:04:00;99494.73;;;3.15;40.47
64139;BME280;50435;43.700;-79.318;2023-02-22T00:06:28;99493.98;;;3.09;40.95
64139;BME280;50435;43.700;-79.318;2023-02-22T00:08:56;99507.37;;;3.11;41.08
64139;BME280;50435;43.700;-79.318;2023-02-22T00:11:24;99513.73;;;2.80;40.91
64139;BME280;50435;43.700;-79.318;2023-02-22T00:13:51;99521.71;;;3.07;40.06
64139;BME280;50435;43.700;-79.318;2023-02-22T00:16:20;99532.08;;;3.17;39.86
64139;BME280;50435;43.700;-79.318;2023-02-22T00:18:48;99551.83;;;3.01;40.46
64139;BME280;50435;43.700;-79.318;2023-02-22T00:21:17;99563.99;;;3.40;41.13
64139;BME280;50435;43.700;-79.318;2023-02-22T00:23:46;99568.74;;;2.97;40.87
64139;BME280;50435;43.700;-79.318;2023-02-22T00:26:15;99577.36;;;3.18;40.76
64139;BME280;50435;43.700;-79.318;2023-02-22T00:28:44;99613.59;;;2.91;40.72
64139;BME280;50435;43.700;-79.318;2023-02-22T00:31:12;99617.78;;;2.88;41.21
64139;BME280;50435;43.700;-79.318;2023-02-22T00:33:40;99633.37;;;2.83;41.77
64139;BME280;50435;43.700;-79.318;2023-02-22T00:36:08;99636.51;;;2.81;41.78
64139;BME280;50435;43.700;-79.318;2023-02-22T00:38:37;99634.04;;;3.22;42.02
64139;BME280;50435;43.700;-79.318;2023-02-22T00:41:04;99643.72;;;2.74;41.88
64139;BME280;50435;43.700;-79.318;2023-02-22T00:43:32;99645.40;;;2.82;42.63
64139;BME280;50435;43.700;-79.318;2023-02-22T00:45:59;99643.04;;;2.75;42.55
64139;BME280;50435;43.700;-79.318;2023-02-22T00:48:26;99660.69;;;2.66;42.89
64139;BME280;50435;43.700;-79.318;2023-02-22T00:50:53;99672.20;;;2.68;42.64
64139;BME280;50435;43.700;-79.318;2023-02-22T00:53:21;99674.11;;;3.18;42.69
64139;BME280;50435;43.700;-79.318;2023-02-22T00:55:49;99675.97;;;2.82;43.09
64139;BME280;50435;43.700;-79.318;2023-02-22T00:58:17;99677.95;;;2.59;43.00
64139;BME280;50435;43.700;-79.318;2023-02-22T01:00:45;99691.15;;;2.50;43.39
64139;BME280;50435;43.700;-79.318;2023-02-22T01:03:14;99704.11;;;2.60;43.92
64139;BME280;50435;43.700;-79.318;2023-02-22T01:05:43;99714.88;;;2.57;43.77
64139;BME280;50435;43.700;-79.318;2023-02-22T01:08:13;99716.68;;;2.48;43.95
64139;BME280;50435;43.700;-79.318;2023-02-22T01:10:41;99708.51;;;2.67;43.94
64139;BME280;50435;43.700;-79.318;2023-02-22T01:13:09;99713.50;;;2.58;44.21
64139;BME280;50435;43.700;-79.318;2023-02-22T01:15:39;99714.60;;;2.92;44.02
64139;BME280;50435;43.700;-79.318;2023-02-22T01:18:07;99723.78;;;2.33;44.52
64139;BME280;50435;43.700;-79.318;2023-02-22T01:20:35;99735.57;;;2.75;44.50
64139;BME280;50435;43.700;-79.318;2023-02-22T01:23:05;99732.70;;;2.24;44.34
64139;BME280;50435;43.700;-79.318;2023-02-22T01:25:33;99740.53;;;2.44;44.77
64139;BME280;50435;43.700;-79.318;2023-02-22T01:28:03;99741.25;;;2.59;44.59
64139;BME280;50435;43.700;-79.318;2023-02-22T01:30:33;99742.06;;;2.66;45.04
64139;BME280;50435;43.700;-79.318;2023-02-22T01:33:02;99746.50;;;2.48;44.86
64139;BME280;50435;43.700;-79.318;2023-02-22T01:35:32;99749.99;;;2.55;44.46
64139;BME280;50435;43.700;-79.318;2023-02-22T01:38:00;99744.37;;;2.14;44.87
64139;BME280;50435;43.700;-79.318;2023-02-22T01:40:30;99746.41;;;2.16;45.00
64139;BME280;50435;43.700;-79.318;2023-02-22T01:43:03;99748.84;;;2.41;44.64
64139;BME280;50435;43.700;-79.318;2023-02-22T01:45:50;99747.63;;;2.40;45.01
64139;BME280;50435;43.700;-79.318;2023-02-22T01:48:24;99740.63;;;2.12;45.15
64139;BME280;50435;43.700;-79.318;2023-02-22T01:50:57;99762.30;;;2.09;44.02
64139;BME280;50435;43.700;-79.318;2023-02-22T01:53:30;99764.32;;;2.35;44.82
64139;BME280;50435;43.700;-79.318;2023-02-22T01:56:00;99769.01;;;2.13;44.40
64139;BME280;50435;43.700;-79.318;2023-02-22T01:58:30;99785.45;;;1.80;44.99
64139;BME280;50435;43.700;-79.318;2023-02-22T02:00:59;99790.27;;;1.54;45.27
64139;BME280;50435;43.700;-79.318;2023-02-22T02:03:29;99794.05;;;1.96;44.54
64139;BME280;50435;43.700;-79.318;2023-02-22T02:06:02;99803.85;;;2.06;44.69
64139;BME280;50435;43.700;-79.318;2023-02-22T02:08:34;99813.12;;;1.81;44.97
64139;BME280;50435;43.700;-79.318;2023-02-22T02:11:04;99828.99;;;1.51;45.52
64139;BME280;50435;43.700;-79.318;2023-02-22T02:13:34;99829.74;;;1.88;45.30
64139;BME280;50435;43.700;-79.318;2023-02-22T02:16:01;99846.72;;;1.76;45.26
64139;BME280;50435;43.700;-79.318;2023-02-22T02:18:30;99844.87;;;1.50;44.19
64139;BME280;50435;43.700;-79.318;2023-02-22T02:21:20;99854.14;;;1.68;43.95
64139;BME280;50435;43.700;-79.318;2023-02-22T02:24:09;99859.27;;;1.58;44.12
64139;BME280;50435;43.700;-79.318;2023-02-22T02:27:05;99853.48;;;1.58;45.14
64139;BME280;50435;43.700;-79.318;2023-02-22T02:32:53;99857.86;;;1.60;45.00
64139;BME280;50435;43.700;-79.318;2023-02-22T02:35:29;99871.32;;;1.44;45.59
64139;BME280;50435;43.700;-79.318;2023-02-22T02:38:04;99886.55;;;1.21;45.53
64139;BME280;50435;43.700;-79.318;2023-02-22T02:40:40;99883.67;;;1.54;44.81
64139;BME280;50435;43.700;-79.318;2023-02-22T02:43:16;99890.53;;;1.43;44.77
64139;BME280;50435;43.700;-79.318;2023-02-22T02:45:52;99908.29;;;1.27;44.72
64139;BME280;50435;43.700;-79.318;2023-02-22T02:48:24;99918.95;;;1.27;45.20
64139;BME280;50435;43.700;-79.318;2023-02-22T02:50:53;99922.46;;;1.38;45.04
64139;BME280;50435;43.700;-79.318;2023-02-22T02:53:26;99920.24;;;1.43;45.17
64139;BME280;50435;43.700;-79.318;2023-02-22T02:55:58;99926.01;;;1.40;44.95
64139;BME280;50435;43.700;-79.318;2023-02-22T02:58:25;99930.67;;;1.34;45.28
64139;BME280;50435;43.700;-79.318;2023-02-22T03:00:55;99947.41;;;1.47;45.10
64139;BME280;50435;43.700;-79.318;2023-02-22T03:04:05;99952.43;;;1.47;45.32
64139;BME280;50435;43.700;-79.318;2023-02-22T03:07:04;99957.42;;;1.25;45.30
64139;BME280;50435;43.700;-79.318;2023-02-22T03:09:44;99966.25;;;1.07;45.67
64139;BME280;50435;43.700;-79.318;2023-02-22T03:12:25;99966.04;;;1.37;45.49
64139;BME280;50435;43.700;-79.318;2023-02-22T03:15:05;99972.38;;;1.24;45.54
64139;BME280;50435;43.700;-79.318;2023-02-22T03:17:45;99980.98;;;1.67;45.31
64139;BME280;50435;43.700;-79.318;2023-02-22T03:20:21;99979.05;;;1.44;45.21
64139;BME280;50435;43.700;-79.318;2023-02-22T03:22:57;99980.24;;;1.58;45.21
64139;BME280;50435;43.700;-79.318;2023-02-22T03:25:31;99988.93;;;1.27;45.51
64139;BME280;50435;43.700;-79.318;2023-02-22T03:28:03;99993.15;;;1.26;45.55
64139;BME280;50435;43.700;-79.318;2023-02-22T03:30:35;99994.70;;;1.21;45.52
64139;BME280;50435;43.700;-79.318;2023-02-22T03:33:06;99986.44;;;1.03;45.50
64139;BME280;50435;43.700;-79.318;2023-02-22T03:35:38;99993.15;;;1.29;45.14
64139;BME280;50435;43.700;-79.318;2023-02-22T03:38:10;100003.75;;;1.19;45.09
64139;BME280;50435;43.700;-79.318;2023-02-22T03:40:41;100007.61;;;1.45;45.33
64139;BME280;50435;43.700;-79.318;2023-02-22T03:43:13;100007.67;;;0.94;45.02
64139;BME280;50435;43.700;-79.318;2023-02-22T03:45:44;100003.79;;;1.11;45.20
64139;BME280;50435;43.700;-79.318;2023-02-22T03:48:18;100003.83;;;1.23;45.32
64139;BME280;50435;43.700;-79.318;2023-02-22T03:50:49;100003.76;;;1.12;45.23
64139;BME280;50435;43.700;-79.318;2023-02-22T03:53:17;100003.70;;;1.38;45.15
64139;BME280;50435;43.700;-79.318;2023-02-22T03:55:47;100008.48;;;1.13;45.22
64139;BME280;50435;43.700;-79.318;2023-02-22T03:58:15;100015.41;;;0.92;45.39
64139;BME280;50435;43.700;-79.318;2023-02-22T04:00:43;100013.92;;;1.33;45.33
64139;BME280;50435;43.700;-79.318;2023-02-22T04:03:10;100020.89;;;1.38;45.12
64139;BME280;50435;43.700;-79.318;2023-02-22T04:05:37;100027.26;;;1.12;45.50
64139;BME280;50435;43.700;-79.318;2023-02-22T04:08:04;100030.72;;;1.17;45.18
64139;BME280;50435;43.700;-79.318;2023-02-22T04:10:31;100037.96;;;1.19;45.11
64139;BME280;50435;43.700;-79.318;2023-02-22T04:12:59;100043.52;;;1.32;45.26
64139;BME280;50435;43.700;-79.318;2023-02-22T04:15:27;100042.44;;;1.20;45.43
64139;BME280;50435;43.700;-79.318;2023-02-22T04:17:54;100045.12;;;1.30;44.95
64139;BME280;50435;43.700;-79.318;2023-02-22T04:20:22;100051.05;;;1.13;45.43
64139;BME280;50435;43.700;-79.318;2023-02-22T04:22:49;100054.71;;;1.33;44.91
64139;BME280;50435;43.700;-79.318;2023-02-22T04:25:17;100044.54;;;0.98;45.06
64139;BME280;50435;43.700;-79.318;2023-02-22T04:27:44;100047.73;;;0.73;45.24
64139;BME280;50435;43.700;-79.318;2023-02-22T04:30:12;100054.43;;;0.78;45.20
64139;BME280;50435;43.700;-79.318;2023-02-22T04:32:39;100050.65;;;0.94;45.21
64139;BME280;50435;43.700;-79.318;2023-02-22T04:35:07;100048.47;;;1.01;45.23
64139;BME280;50435;43.700;-79.318;2023-02-22T04:37:35;100050.73;;;1.18;45.16
64139;BME280;50435;43.700;-79.318;2023-02-22T04:40:03;100056.18;;;1.11;45.21
64139;BME280;50435;43.700;-79.318;2023-02-22T04:42:31;100066.03;;;1.21;45.30
64139;BME280;50435;43.700;-79.318;2023-02-22T04:44:59;100073.22;;;0.94;45.10
64139;BME280;50435;43.700;-79.318;2023-02-22T04:47:26;100076.48;;;1.06;45.09
64139;BME280;50435;43.700;-79.318;2023-02-22T04:49:53;100083.73;;;1.04;45.45
64139;BME280;50435;43.700;-79.318;2023-02-22T04:52:21;100073.87;;;0.82;45.25
64139;BME280;50435;43.700;-79.318;2023-02-22T04:54:48;100082.14;;;1.02;45.33
64139;BME280;50435;43.700;-79.318;2023-02-22T04:57:16;100076.98;;;0.82;45.18
64139;BME280;50435;43.700;-79.318;2023-02-22T04:59:43;100083.38;;;0.77;45.16
64139;BME280;50435;43.700;-79.318;2023-02-22T05:02:11;100091.67;;;1.03;45.13
64139;BME280;50435;43.700;-79.318;2023-02-22T05:04:38;100094.36;;;0.75;45.29
64139;BME280;50435;43.700;-79.318;2023-02-22T05:07:05;100104.95;;;0.92;45.35
64139;BME280;50435;43.700;-79.318;2023-02-22T05:09:33;100109.32;;;0.63;45.51
64139;BME280;50435;43.700;-79.318;2023-02-22T05:12:00;100112.17;;;0.69;45.42
64139;BME280;50435;43.700;-79.318;2023-02-22T05:14:28;100108.14;;;0.91;45.43
64139;BME280;50435;43.700;-79.318;2023-02-22T05:16:56;100109.83;;;0.58;45.58
64139;BME280;50435;43.700;-79.318;2023-02-22T05:19:23;100118.36;;;0.69;45.87
64139;BME280;50435;43.700;-79.318;2023-02-22T05:21:51;100128.43;;;0.49;46.21
64139;BME280;50435;43.700;-79.318;2023-02-22T05:24:18;100129.74;;;0.64;45.80
64139;BME280;50435;43.700;-79.318;2023-02-22T05:26:45;100140.40;;;0.68;45.78
64139;BME280;50435;43.700;-79.318;2023-02-22T05:29:13;100144.40;;;0.50;45.85
64139;BME280;50435;43.700;-79.318;2023-02-22T05:31:41;100144.63;;;0.49;46.08
64139;BME280;50435;43.700;-79.318;2023-02-22T05:34:08;100143.75;;;0.54;45.81
64139;BME280;50435;43.700;-79.318;2023-02-22T05:36:36;100149.33;;;0.59;45.84
64139;BME280;50435;43.700;-79.318;2023-02-22T05:39:03;100144.26;;;0.62;45.60
64139;BME280;50435;43.700;-79.318;2023-02-22T05:41:30;100156.19;;;0.50;46.01
64139;BME280;50435;43.700;-79.318;2023-02-22T05:43:58;100163.38;;;0.52;45.93
64139;BME280;50435;43.700;-79.318;2023-02-22T05:46:25;100163.90;;;0.46;45.91
64139;BME280;50435;43.700;-79.318;2023-02-22T05:48:52;100169.23;;;0.39;46.04
64139;BME280;50435;43.700;-79.318;2023-02-22T05:51:20;100172.44;;;0.44;45.96
64139;BME280;50435;43.700;-79.318;2023-02-22T05:53:47;100178.47;;;0.37;46.07
64139;BME280;50435;43.700;-79.318;2023-02-22T05:56:20;100177.49;;;0.26;45.83
64139;BME280;50435;43.700;-79.318;2023-02-22T05:58:47;100181.62;;;0.32;46.33
64139;BME280;50435;43.700;-79.318;2023-02-22T06:01:15;100185.04;;;0.37;46.15
64139;BME280;50435;43.700;-79.318;2023-02-22T06:03:42;100190.85;;;0.44;45.76
64139;BME280;50435;43.700;-79.318;2023-02-22T06:06:12;100201.80;;;0.49;45.71
64139;BME280;50435;43.700;-79.318;2023-02-22T06:08:39;100205.00;;;0.34;46.04
64139;BME280;50435;43.700;-79.318;2023-02-22T06:11:07;100201.90;;;0.28;46.18
64139;BME280;50435;43.700;-79.318;2023-02-22T06:13:34;100202.46;;;0.38;46.05
64139;BME280;50435;43.700;-79.318;2023-02-22T06:16:02;100200.57;;;0.45;45.74
64139;BME280;50435;43.700;-79.318;2023-02-22T06:18:30;100195.54;;;0.29;46.09
64139;BME280;50435;43.700;-79.318;2023-02-22T06:20:58;100197.32;;;0.36;46.08
64139;BME280;50435;43.700;-79.318;2023-02-22T06:23:26;100207.20;;;0.45;45.82
64139;BME280;50435;43.700;-79.318;2023-02-22T06:25:53;100210.56;;;0.25;46.06
64139;BME280;50435;43.700;-79.318;2023-02-22T06:28:21;100210.43;;;0.27;46.10
64139;BME280;50435;43.700;-79.318;2023-02-22T06:30:48;100210.11;;;0.57;45.98
64139;BME280;50435;43.700;-79.318;2023-02-22T06:33:16;100204.56;;;0.38;45.95
64139;BME280;50435;43.700;-79.318;2023-02-22T06:35:43;100209.48;;;0.47;45.75
64139;BME280;50435;43.700;-79.318;2023-02-22T06:38:11;100214.67;;;0.77;46.13
64139;BME280;50435;43.700;-79.318;2023-02-22T06:40:46;100210.59;;;0.19;46.24
64139;BME280;50435;43.700;-79.318;2023-02-22T06:43:13;100210.86;;;0.08;46.32
64139;BME280;50435;43.700;-79.318;2023-02-22T06:45:40;100207.87;;;0.29;46.08
64139;BME280;50435;43.700;-79.318;2023-02-22T06:48:08;100208.99;;;0.18;46.26
64139;BME280;50435;43.700;-79.318;2023-02-22T06:50:35;100213.47;;;0.28;46.24
64139;BME280;50435;43.700;-79.318;2023-02-22T06:53:03;100222.06;;;0.23;46.28
64139;BME280;50435;43.700;-79.318;2023-02-22T06:55:32;100220.53;;;0.28;46.28
64139;BME280;50435;43.700;-79.318;2023-02-22T06:58:01;100227.45;;;0.18;46.29
64139;BME280;50435;43.700;-79.318;2023-02-22T07:00:30;100228.58;;;0.15;46.27
64139;BME280;50435;43.700;-79.318;2023-02-22T07:02:58;100248.91;;;0.23;46.39
64139;BME280;50435;43.700;-79.318;2023-02-22T07:05:26;100255.28;;;0.21;46.17
64139;BME280;50435;43.700;-79.318;2023-02-22T07:08:00;100268.48;;;0.17;46.30
64139;BME280;50435;43.700;-79.318;2023-02-22T07:10:30;100272.69;;;0.12;46.40
64139;BME280;50435;43.700;-79.318;2023-02-22T07:12:58;100279.86;;;0.30;46.58
64139;BME280;50435;43.700;-79.318;2023-02-22T07:15:27;100293.35;;;0.09;46.32
64139;BME280;50435;43.700;-79.318;2023-02-22T07:17:56;100302.34;;;0.04;46.49
64139;BME280;50435;43.700;-79.318;2023-02-22T07:20:25;100310.34;;;0.17;46.26
64139;BME280;50435;43.700;-79.318;2023-02-22T07:22:53;100319.32;;;0.10;46.38
64139;BME280;50435;43.700;-79.318;2023-02-22T07:25:22;100315.86;;;0.15;46.38
64139;BME280;50435;43.700;-79.318;2023-02-22T07:27:49;100308.95;;;0.51;46.15
64139;BME280;50435;43.700;-79.318;2023-02-22T07:30:19;100317.50;;;0.17;46.32
64139;BME280;50435;43.700;-79.318;2023-02-22T07:32:47;100320.70;;;0.56;46.45
64139;BME280;50435;43.700;-79.318;2023-02-22T07:35:16;100321.68;;;0.23;46.20
64139;BME280;50435;43.700;-79.318;2023-02-22T07:37:44;100323.70;;;0.12;46.35
64139;BME280;50435;43.700;-79.318;2023-02-22T07:40:12;100324.39;;;0.21;46.28
64139;BME280;50435;43.700;-79.318;2023-02-22T07:42:57;100321.13;;;0.28;46.17
64139;BME280;50435;43.700;-79.318;2023-02-22T07:45:27;100322.66;;;0.13;46.24
64139;BME280;50435;43.700;-79.318;2023-02-22T07:47:56;100321.84;;;0.23;46.23
64139;BME280;50435;43.700;-79.318;2023-02-22T07:50:25;100316.42;;;0.29;45.98
64139;BME280;50435;43.700;-79.318;2023-02-22T07:52:54;100312.25;;;0.31;46.00
64139;BME280;50435;43.700;-79.318;2023-02-22T07:55:25;100319.61;;;0.29;46.02
64139;BME280;50435;43.700;-79.318;2023-02-22T07:57:55;100323.10;;;0.70;46.14
64139;BME280;50435;43.700;-79.318;2023-02-22T08:00:24;100317.82;;;0.30;46.01
64139;BME280;50435;43.700;-79.318;2023-02-22T08:02:52;100315.68;;;0.32;45.97
64139;BME280;50435;43.700;-79.318;2023-02-22T08:05:21;100316.38;;;0.36;45.97
64139;BME280;50435;43.700;-79.318;2023-02-22T08:07:49;100320.58;;;0.24;46.24
64139;BME280;50435;43.700;-79.318;2023-02-22T08:10:21;100314.68;;;0.27;46.03
64139;BME280;50435;43.700;-79.318;2023-02-22T08:12:49;100312.18;;;0.41;45.85
64139;BME280;50435;43.700;-79.318;2023-02-22T08:15:18;100322.10;;;0.35;45.80
64139;BME280;50435;43.700;-79.318;2023-02-22T08:17:46;100323.50;;;0.39;46.20
64139;BME280;50435;43.700;-79.318;2023-02-22T08:20:14;100335.33;;;0.25;46.17
64139;BME280;50435;43.700;-79.318;2023-02-22T08:22:42;100337.31;;;0.25;46.13
64139;BME280;50435;43.700;-79.318;2023-02-22T08:25:11;100325.60;;;0.27;46.08
64139;BME280;50435;43.700;-79.318;2023-02-22T08:27:39;100314.40;;;0.32;45.92
64139;BME280;50435;43.700;-79.318;2023-02-22T08:30:07;100306.03;;;0.30;45.95
64139;BME280;50435;43.700;-79.318;2023-02-22T08:32:35;100301.76;;;0.31;45.95
64139;BME280;50435;43.700;-79.318;2023-02-22T08:35:03;100303.78;;;0.37;45.87
64139;BME280;50435;43.700;-79.318;2023-02-22T08:37:31;100304.26;;;0.29;46.11
64139;BME280;50435;43.700;-79.318;2023-02-22T08:39:58;100307.27;;;0.34;46.12
64139;BME280;50435;43.700;-79.318;2023-02-22T08:42:26;100309.13;;;0.35;45.92
64139;BME280;50435;43.700;-79.318;2023-02-22T08:44:53;100308.96;;;0.36;45.84
64139;BME280;50435;43.700;-79.318;2023-02-22T08:47:20;100301.74;;;0.32;45.93
64139;BME280;50435;43.700;-79.318;2023-02-22T08:49:48;100302.59;;;0.37;45.85
64139;BME280;50435;43.700;-79.318;2023-02-22T08:52:15;100309.54;;;0.29;45.97
64139;BME280;50435;43.700;-79.318;2023-02-22T08:54:44;100312.12;;;0.29;45.97
64139;BME280;50435;43.700;-79.318;2023-02-22T08:57:12;100316.51;;;0.31;45.95
64139;BME280;50435;43.700;-79.318;2023-02-22T08:59:39;100314.81;;;0.13;46.20
64139;BME280;50435;43.700;-79.318;2023-02-22T09:02:13;100318.57;;;0.18;46.10
64139;BME280;50435;43.700;-79.318;2023-02-22T09:04:41;100317.16;;;0.19;46.12
64139;BME280;50435;43.700;-79.318;2023-02-22T09:07:08;100310.23;;;0.52;45.98
64139;BME280;50435;43.700;-79.318;2023-02-22T09:09:36;100315.18;;;0.22;45.97
64139;BME280;50435;43.700;-79.318;2023-02-22T09:12:04;100320.13;;;0.13;46.15
64139;BME280;50435;43.700;-79.318;2023-02-22T09:14:32;100320.72;;;0.26;45.91
64139;BME280;50435;43.700;-79.318;2023-02-22T09:16:59;100324.06;;;0.63;46.02
64139;BME280;50435;43.700;-79.318;2023-02-22T09:19:27;100321.75;;;0.10;46.11
64139;BME280;50435;43.700;-79.318;2023-02-22T09:21:54;100329.10;;;0.29;46.21
64139;BME280;50435;43.700;-79.318;2023-02-22T09:24:22;100340.03;;;0.19;46.02
64139;BME280;50435;43.700;-79.318;2023-02-22T09:26:50;100338.69;;;0.45;45.94
64139;BME280;50435;43.700;-79.318;2023-02-22T09:29:17;100329.43;;;0.19;45.92
64139;BME280;50435;43.700;-79.318;2023-02-22T09:31:45;100332.68;;;0.13;46.07
64139;BME280;50435;43.700;-79.318;2023-02-22T09:34:12;100321.39;;;0.16;46.01
64139;BME280;50435;43.700;-79.318;2023-02-22T09:36:40;100326.04;;;-0.03;46.31
64139;BME280;50435;43.700;-79.318;2023-02-22T09:39:08;100332.46;;;0.09;46.07
64139;BME280;50435;43.700;-79.318;2023-02-22T09:41:39;100343.55;;;0.09;46.06
64139;BME280;50435;43.700;-79.318;2023-02-22T09:44:17;100347.85;;;0.09;46.03
64139;BME280;50435;43.700;-79.318;2023-02-22T09:46:47;100355.63;;;0.03;46.26
64139;BME280;50435;43.700;-79.318;2023-02-22T09:49:20;100362.89;;;0.43;46.34
64139;BME280;50435;43.700;-79.318;2023-02-22T09:51:54;100365.66;;;-0.04;46.29
64139;BME280;50435;43.700;-79.318;2023-02-22T09:54:28;100382.56;;;-0.17;46.62
64139;BME280;50435;43.700;-79.318;2023-02-22T09:57:01;100389.53;;;-0.16;46.50
64139;BME280;50435;43.700;-79.318;2023-02-22T09:59:32;100396.73;;;-0.20;46.63
64139;BME280;50435;43.700;-79.318;2023-02-22T10:02:10;100410.32;;;-0.18;46.52
64139;BME280;50435;43.700;-79.318;2023-02-22T10:04:47;100412.98;;;0.03;46.52
64139;BME280;50435;43.700;-79.318;2023-02-22T10:07:19;100406.81;;;0.10;46.36
64139;BME280;50435;43.700;-79.318;2023-02-22T10:09:50;100409.69;;;-0.06;46.79
64139;BME280;50435;43.700;-79.318;2023-02-22T10:12:28;100407.35;;;0.13;46.72
64139;BME280;50435;43.700;-79.318;2023-02-22T10:15:12;100404.11;;;-0.34;46.60
64139;BME280;50435;43.700;-79.318;2023-02-22T10:17:51;100404.89;;;-0.32;46.43
64139;BME280;50435;43.700;-79.318;2023-02-22T10:20:37;100416.02;;;-0.14;46.65
64139;BME280;50435;43.700;-79.318;2023-02-22T10:23:15;100415.42;;;0.03;46.68
64139;BME280;50435;43.700;-79.318;2023-02-22T10:25:50;100417.91;;;-0.16;46.61
64139;BME280;50435;43.700;-79.318;2023-02-22T10:28:23;100415.70;;;-0.00;46.41
64139;BME280;50435;43.700;-79.318;2023-02-22T10:30:57;100428.34;;;-0.42;46.59
64139;BME280;50435;43.700;-79.318;2023-02-22T10:33:28;100442.75;;;-0.09;46.52
64139;BME280;50435;43.700;-79.318;2023-02-22T10:35:57;100438.71;;;-0.41;46.50
64139;BME280;50435;43.700;-79.318;2023-02-22T10:38:26;100447.15;;;-0.41;46.39
64139;BME280;50435;43.700;-79.318;2023-02-22T10:40:56;100447.25;;;-0.40;46.45
64139;BME280;50435;43.700;-79.318;2023-02-22T10:43:26;100447.13;;;-0.07;46.31
64139;BME280;50435;43.700;-79.318;2023-02-22T10:45:56;100449.82;;;0.05;46.56
64139;BME280;50435;43.700;-79.318;2023-02-22T10:48:25;100458.76;;;-0.30;46.06
64139;BME280;50435;43.700;-79.318;2023-02-22T10:50:59;100461.93;;;-0.35;46.10
64139;BME280;50435;43.700;-79.318;2023-02-22T10:53:27;100463.42;;;0.16;46.19
64139;BME280;50435;43.700;-79.318;2023-02-22T10:56:27;100449.67;;;-0.35;46.17
64139;BME280;50435;43.700;-79.318;2023-02-22T10:58:56;100447.71;;;-0.22;45.84
64139;BME280;50435;43.700;-79.318;2023-02-22T11:01:27;100462.54;;;-0.26;45.86
64139;BME280;50435;43.700;-79.318;2023-02-22T11:04:04;100464.08;;;-0.34;46.02
64139;BME280;50435;43.700;-79.318;2023-02-22T11:06:35;100466.43;;;0.21;46.07
64139;BME280;50435;43.700;-79.318;2023-02-22T11:09:06;100465.65;;;-0.24;46.35
64139;BME280;50435;43.700;-79.318;2023-02-22T11:11:34;100457.26;;;-0.30;46.06
64139;BME280;50435;43.700;-79.318;2023-02-22T11:14:03;100462.54;;;-0.31;46.05
64139;BME280;50435;43.700;-79.318;2023-02-22T11:16:32;100458.84;;;0.22;45.99
64139;BME280;50435;43.700;-79.318;2023-02-22T11:19:05;100462.95;;;-0.02;45.88
64139;BME280;50435;43.700;-79.318;2023-02-22T11:21:36;100476.74;;;0.23;45.95
64139;BME280;50435;43.700;-79.318;2023-02-22T11:24:05;100477.81;;;-0.04;46.05
64139;BME280;50435;43.700;-79.318;2023-02-22T11:26:39;100477.21;;;-0.24;45.95
64139;BME280;50435;43.700;-79.318;2023-02-22T11:29:14;100487.80;;;0.25;45.85
64139;BME280;50435;43.700;-79.318;2023-02-22T11:31:45;100496.32;;;-0.37;46.10
64139;BME280;50435;43.700;-79.318;2023-02-22T11:34:33;100499.66;;;0.18;45.86
64139;BME280;50435;43.700;-79.318;2023-02-22T11:37:27;100504.18;;;0.12;45.97
64139;BME280;50435;43.700;-79.318;2023-02-22T11:40:10;100500.89;;;0.08;46.07
64139;BME280;50435;43.700;-79.318;2023-02-22T11:42:38;100499.76;;;-0.52;46.32
64139;BME280;50435;43.700;-79.318;2023-02-22T11:45:09;100493.19;;;-0.62;46.48
64139;BME280;50435;43.700;-79.318;2023-02-22T11:47:48;100483.43;;;-0.06;46.01
64139;BME280;50435;43.700;-79.318;2023-02-22T11:50:26;100477.84;;;-0.16;46.66
64139;BME280;50435;43.700;-79.318;2023-02-22T11:53:01;100480.14;;;-0.37;46.71
64139;BME280;50435;43.700;-79.318;2023-02-22T11:55:34;100463.32;;;-0.21;46.85
64139;BME280;50435;43.700;-79.318;2023-02-22T11:58:12;100454.34;;;-0.26;46.99
64139;BME280;50435;43.700;-79.318;2023-02-22T12:00:51;100442.30;;;-0.11;46.69
64139;BME280;50435;43.700;-79.318;2023-02-22T12:03:33;100440.82;;;-0.30;47.00
64139;BME280;50435;43.700;-79.318;2023-02-22T12:06:14;100444.31;;;-0.29;47.01
64139;BME280;50435;43.700;-79.318;2023-02-22T12:08:52;100429.57;;;-0.28;46.95
64139;BME280;50435;43.700;-79.318;2023-02-22T12:11:26;100418.54;;;-0.49;46.94
64139;BME280;50435;43.700;-79.318;2023-02-22T12:14:12;100413.03;;;-0.45;47.21
64139;BME280;50435;43.700;-79.318;2023-02-22T12:16:54;100425.47;;;-0.37;47.09
64139;BME280;50435;43.700;-79.318;2023-02-22T12:19:30;100444.30;;;-0.33;47.20
64139;BME280;50435;43.700;-79.318;2023-02-22T12:22:02;100435.76;;;-0.56;47.11
64139;BME280;50435;43.700;-79.318;2023-02-22T12:24:35;100440.23;;;-0.46;47.27
64139;BME280;50435;43.700;-79.318;2023-02-22T12:27:08;100462.40;;;-0.71;47.10
64139;BME280;50435;43.700;-79.318;2023-02-22T12:29:41;100465.85;;;-0.44;46.58
64139;BME280;50435;43.700;-79.318;2023-02-22T12:32:13;100474.34;;;-0.32;46.65
64139;BME280;50435;43.700;-79.318;2023-02-22T12:34:45;100496.58;;;-0.13;46.38
64139;BME280;50435;43.700;-79.318;2023-02-22T12:37:17;100520.56;;;-0.30;46.63
64139;BME280;50435;43.700;-79.318;2023-02-22T12:39:53;100516.45;;;-0.27;46.36
64139;BME280;50435;43.700;-79.318;2023-02-22T12:42:28;100532.87;;;-0.58;46.66
64139;BME280;50435;43.700;-79.318;2023-02-22T12:45:00;100546.15;;;-0.52;46.60
64139;BME280;50435;43.700;-79.318;2023-02-22T12:47:33;100548.54;;;-0.62;46.86
64139;BME280;50435;43.700;-79.318;2023-02-22T12:50:09;100553.92;;;-0.88;46.78
64139;BME280;50435;43.700;-79.318;2023-02-22T12:52:44;100555.14;;;-0.67;46.81
64139;BME280;50435;43.700;-79.318;2023-02-22T12:55:18;100551.07;;;-0.68;46.81
64139;BME280;50435;43.700;-79.318;2023-02-22T12:57:54;100553.33;;;-0.69;46.84
64139;BME280;50435;43.700;-79.318;2023-02-22T13:00:26;100545.69;;;-0.61;46.82
64139;BME280;50435;43.700;-79.318;2023-02-22T13:03:00;100544.15;;;-0.64;46.76